Terminal Aerodrome Forecast
Issued by NWS North Platte, NE

Home | Current Version | Previous Version | Graphics & Text | Print | Product List | Glossary On
Versions: 1 2 3 4 5 6 7 8 9 10 11 12 13 14
046
FTUS43 KLBF 180331 AAB
TAFVTN
TAF AMD
KVTN 180331Z 1804/1824 35007KT P6SM VCSH OVC025
     FM180500 36014G26KT 3SM -SN OVC010
     FM180800 33016G24KT P6SM BKN008 OVC015
     FM181000 31019G38KT P6SM SCT140=

USA.gov is the U.S. government's official web portal to all federal, state and local government web resources and services.